Addy, WA

12:05 AM PDT on October 25, 2014 (GMT -0700)
Deer Park | Change Station
CLOSE
Current Station
Airport
Location: Deer Park,
Elevation: 2205 ft
Nearby Weather Stations

Elev 2205 ft 47.97 °N, 117.42 °W | Updated 12 minutes ago

Rain
Rain
47 °F
Feels Like 47 °F
N
9
Wind Variable Wind from North

Today
High -- | Low -- °F
--% Chance of Precip.
Yesterday
High -- | Low -- °F
Precip. -- in
7:26 AM 5:44 PM
New Moon, 2% visible
Pressure 29.97 in
Visibility 10.0 miles
Clouds Overcast 5500 ft
Dew Point 42 °F
Humidity 83%
Rainfall 0.01 in
Snow Depth Not available.
UV 0 out of 12
Pollen 1.20 out of 12
PM2.5 Moderate
Flu Activity Sporadic
METAR KDEW 250653Z AUTO 01008KT 10SM OVC055 08/06 A2996 RMK AO2 RAB0558E10 SLP148 P0000 T00830056

More Conditions Fewer Conditions

Pressure 29.97 in
Visibility 10.0 miles
Clouds Overcast 5500 ft
Dew Point 42 °F
Humidity 83%
Rainfall 0.01 in
Snow Depth Not available.
UV 0 out of 12
Pollen 1.20 out of 12
PM2.5 Moderate
Flu Activity Sporadic
METAR KDEW 250653Z AUTO 01008KT 10SM OVC055 08/06 A2996 RMK AO2 RAB0558E10 SLP148 P0000 T00830056

More Conditions Fewer Conditions

10-Day Weather Forecast

Almanac

Astronomy

Oct. 25, 2014 Rise Set
Actual Time 7:26 AM PDT 5:44 PM PDT
Civil Twilight 6:54 AM PDT 6:16 PM PDT
Nautical Twilight 6:18 AM PDT 6:52 PM PDT
Astronomical Twilight 5:41 AM PDT 7:28 PM PDT
Moon 9:16 AM PDT 7:03 PM PDT
Length of Visible Light 11h 21m
Length of Day
10h 17m
Tomorrow will be 3m 17s shorter.
New Moon, 2% of the Moon is Illuminated
Today
New Moon
Oct 30
First Quarter
Nov 6
Full
Nov 14
Last Quarter
Nov 22
New

Community

WunderPhotos

Upload Photos

1,764,789 photos uploaded!

Nearby

Air Quality

  Air Quality AQ Index Pollutant
Yesterday Good
PM10
Current Moderate
PM2.5
Friday Good
PM10
Friday Good
CO
Saturday Good
PM10
Saturday Good
CO
Sunday Good
PM10
Sunday Good
CO
Monday Good
PM10
Monday Good
CO

Snow Depth

Station Depth Elevation
Bunchgrass Meadow 0 in 5000 ft
Quartz Peak 1 in 4700 ft
Moses Mountain 0 in 5300 ft
Pope Ridge 0 in 3540 ft
Harts Pass 2 in 6500 ft

Earthquake Activity

City Distance Mag. Time & Date
No recent earthquake activity has been reported nearby.
Minimum magnitude displayed is 2.5.

Coastal Water Temperatures

Place Temperature
No Stations Reporting

Nearby Weather Stations